Time;durP1;ratioP1;P1;durP2;ratioP2;P2;SDS_P1;SDS_P2;PMS_P1;PMS_P2;Temp;Humidity;BMP_temperature;BMP_pressure;BME280_temperature;BME280_humidity;BME280_pressure;Samples;Min_cycle;Max_cycle;Signal;HPM_P1;HPM_P2
2023/09/09 00:01:58;;;;;;;9.02;7.88;;;17.30;99.90;;;16.26;100.00;97758.09;5009822;28;20064;-73
2023/09/09 00:04:25;;;;;;;8.95;7.38;;;17.30;99.90;;;16.18;100.00;97755.13;5021613;28;20132;-73
2023/09/09 00:06:52;;;;;;;8.00;7.20;;;17.30;99.90;;;16.15;100.00;97750.06;5021519;28;20046;-74
2023/09/09 00:09:19;;;;;;;8.98;8.05;;;17.20;99.90;;;16.07;100.00;97750.53;5021814;28;20052;-74
2023/09/09 00:11:46;;;;;;;11.13;6.85;;;17.10;99.90;;;16.09;100.00;97756.53;5025417;28;20486;-74
2023/09/09 00:14:13;;;;;;;10.10;8.30;;;17.10;99.90;;;16.14;100.00;97752.78;5023453;28;20125;-74
2023/09/09 00:16:40;;;;;;;11.23;7.03;;;17.10;99.90;;;16.02;100.00;97749.16;5025147;28;20045;-73
2023/09/09 00:19:07;;;;;;;10.23;7.20;;;17.10;99.90;;;16.06;100.00;97754.09;5007481;28;20092;-73
2023/09/09 00:21:35;;;;;;;10.13;8.57;;;17.00;99.90;;;16.14;100.00;97756.22;5019452;28;20041;-73
2023/09/09 00:24:02;;;;;;;8.88;5.82;;;17.10;99.90;;;16.17;100.00;97748.22;5021082;28;20111;-74
2023/09/09 00:26:31;;;;;;;9.05;8.02;;;17.10;99.90;;;16.08;100.00;97743.53;5023001;28;20141;-73
2023/09/09 00:28:58;;;;;;;9.90;8.02;;;17.10;99.90;;;16.08;100.00;97747.00;5018274;28;20594;-74
2023/09/09 00:31:25;;;;;;;9.20;6.57;;;17.10;99.90;;;16.16;100.00;97746.50;5015482;28;20054;-74
2023/09/09 00:33:53;;;;;;;7.45;6.75;;;17.10;99.90;;;16.24;100.00;97741.66;5023781;28;20049;-74
2023/09/09 00:36:20;;;;;;;8.60;7.70;;;17.20;99.90;;;16.23;100.00;97737.31;5005160;28;20041;-74
2023/09/09 00:38:47;;;;;;;10.32;9.32;;;17.20;99.90;;;16.17;100.00;97740.34;5020327;28;20115;-74
2023/09/09 00:41:18;;;;;;;8.95;8.05;;;17.20;99.90;;;16.08;100.00;97743.53;5024958;28;20045;-74
2023/09/09 00:43:46;;;;;;;8.40;7.10;;;17.20;99.90;;;16.18;100.00;97738.56;5024742;28;20159;-73
2023/09/09 00:46:16;;;;;;;8.15;7.10;;;17.20;99.90;;;16.28;100.00;97737.03;5024675;28;20484;-74
2023/09/09 00:48:44;;;;;;;8.82;7.05;;;17.10;99.90;;;16.26;100.00;97736.28;5022851;28;20065;-74
2023/09/09 00:51:12;;;;;;;9.02;8.05;;;17.10;99.90;;;16.20;100.00;97734.91;5020920;28;20112;-73
2023/09/09 00:53:41;;;;;;;9.52;7.47;;;17.10;99.90;;;16.14;100.00;97735.28;5018971;28;20049;-73
2023/09/09 00:56:09;;;;;;;8.30;7.40;;;17.20;99.90;;;16.06;100.00;97729.72;5017998;28;20053;-74
2023/09/09 00:58:37;;;;;;;8.88;7.80;;;17.10;99.90;;;16.06;100.00;97738.41;5024289;28;20049;-73
2023/09/09 01:01:04;;;;;;;7.85;5.18;;;17.00;99.90;;;16.03;100.00;97738.59;5018379;28;20061;-73
2023/09/09 01:03:31;;;;;;;8.50;7.13;;;17.00;99.90;;;16.02;100.00;97734.28;5018988;28;20422;-73
2023/09/09 01:05:59;;;;;;;7.50;5.57;;;17.00;99.90;;;15.95;100.00;97732.97;5019557;28;20049;-73
2023/09/09 01:08:28;;;;;;;8.65;6.30;;;17.00;99.90;;;15.91;100.00;97739.34;5017459;28;20050;-74
2023/09/09 01:10:57;;;;;;;10.70;5.70;;;17.00;99.90;;;15.93;100.00;97728.78;5019334;28;20686;-73
2023/09/09 01:13:24;;;;;;;7.55;5.47;;;16.90;99.90;;;15.97;100.00;97725.03;5018567;28;20075;-74
2023/09/09 01:15:53;;;;;;;7.65;6.70;;;16.90;99.90;;;15.86;100.00;97729.16;5024442;28;20107;-74
2023/09/09 01:18:21;;;;;;;7.45;5.40;;;16.90;99.90;;;15.85;100.00;97737.09;5021369;28;20093;-73
2023/09/09 01:21:03;;;;;;;10.40;5.20;;;16.90;99.90;;;15.76;100.00;97722.81;5033159;28;20132;-74
2023/09/09 01:23:30;;;;;;;12.05;5.78;;;16.90;99.90;;;15.84;100.00;97732.81;5026429;28;20104;-73
2023/09/09 01:25:57;;;;;;;7.28;6.57;;;16.80;99.90;;;15.80;100.00;97728.69;5017449;28;20097;-73
2023/09/09 01:28:24;;;;;;;7.80;7.03;;;16.80;99.90;;;15.77;100.00;97721.03;5017923;28;20128;-73
2023/09/09 01:30:51;;;;;;;8.73;7.82;;;16.80;99.90;;;15.76;100.00;97722.81;5008692;28;20053;-74
2023/09/09 01:33:19;;;;;;;7.32;5.03;;;16.70;99.90;;;15.70;100.00;97720.53;5018565;28;20045;-73
2023/09/09 01:35:46;;;;;;;9.10;5.53;;;16.70;99.90;;;15.62;100.00;97721.00;5021725;28;20081;-73
2023/09/09 01:38:14;;;;;;;7.65;6.35;;;16.70;99.90;;;15.60;100.00;97720.25;5023973;28;20049;-73
2023/09/09 01:40:40;;;;;;;9.13;7.63;;;16.70;99.90;;;15.58;100.00;97721.28;5035504;28;20081;-73
2023/09/09 01:43:08;;;;;;;9.05;7.20;;;16.60;99.90;;;15.64;100.00;97724.34;5018557;28;20053;-73
2023/09/09 01:45:35;;;;;;;7.55;5.38;;;16.60;99.90;;;15.46;100.00;97721.09;5018006;28;20674;-73
2023/09/09 01:48:02;;;;;;;8.65;6.18;;;16.60;99.90;;;15.42;100.00;97723.97;5019318;28;20081;-74
2023/09/09 01:50:29;;;;;;;8.10;5.80;;;16.50;99.90;;;15.46;100.00;97717.63;5025221;28;20426;-74
2023/09/09 01:52:56;;;;;;;9.15;5.88;;;16.50;99.90;;;15.40;100.00;97721.44;5006625;28;20509;-74
2023/09/09 01:55:23;;;;;;;9.23;5.68;;;16.50;99.90;;;15.42;100.00;97729.22;5020582;28;20085;-73
2023/09/09 01:57:50;;;;;;;9.05;6.13;;;16.50;99.90;;;15.26;100.00;97727.50;5020247;28;20050;-74
2023/09/09 02:00:18;;;;;;;8.70;7.80;;;16.40;99.90;;;15.23;100.00;97730.28;5018026;28;20053;-73
2023/09/09 02:02:46;;;;;;;7.90;7.10;;;16.40;99.90;;;15.35;100.00;97726.13;5035710;28;20107;-73
2023/09/09 02:05:13;;;;;;;6.97;6.28;;;16.40;99.90;;;15.37;100.00;97729.50;5016670;28;20502;-73
2023/09/09 02:07:40;;;;;;;9.40;6.90;;;16.40;99.90;;;15.26;100.00;97730.13;5016663;28;20048;-73
2023/09/09 02:10:08;;;;;;;8.55;5.90;;;16.40;99.90;;;15.33;100.00;97725.38;5021842;28;20140;-73
2023/09/09 02:12:39;;;;;;;6.90;4.72;;;16.30;99.90;;;15.24;100.00;97723.31;5022415;28;20119;-73
2023/09/09 02:15:10;;;;;;;8.20;4.88;;;16.30;99.90;;;15.26;100.00;97726.66;5021495;28;20049;-73
2023/09/09 02:17:37;;;;;;;9.20;5.90;;;16.30;99.90;;;15.24;100.00;97725.91;5020789;28;20394;-73
2023/09/09 02:20:06;;;;;;;12.40;5.85;;;16.20;99.90;;;15.17;100.00;97730.66;5018731;28;20457;-73
2023/09/09 02:22:33;;;;;;;11.50;6.80;;;16.20;99.90;;;15.17;100.00;97727.22;5017767;28;20127;-73
2023/09/09 02:25:00;;;;;;;8.27;5.22;;;16.20;99.90;;;15.23;100.00;97727.66;5016667;28;20046;-73
2023/09/09 02:27:27;;;;;;;9.75;5.57;;;16.20;99.90;;;15.11;100.00;97727.56;5018361;28;20042;-73
2023/09/09 02:29:54;;;;;;;11.48;6.40;;;16.20;99.90;;;15.05;100.00;97731.34;5021432;28;20049;-73
2023/09/09 02:32:23;;;;;;;9.07;5.95;;;16.20;99.90;;;15.13;100.00;97733.53;5006103;28;20443;-73
2023/09/09 02:34:50;;;;;;;10.90;5.85;;;16.20;99.90;;;15.14;100.00;97737.84;5018868;28;20053;-73
2023/09/09 02:37:22;;;;;;;9.98;6.75;;;16.20;99.90;;;15.04;100.00;97734.91;5017500;28;20073;-72
2023/09/09 02:39:51;;;;;;;11.15;7.32;;;16.20;99.90;;;14.88;100.00;97734.13;5020692;28;20064;-73
2023/09/09 02:42:21;;;;;;;9.73;6.63;;;16.10;99.90;;;14.90;100.00;97740.94;5018536;28;20053;-73
2023/09/09 02:44:52;;;;;;;10.85;7.45;;;16.00;99.90;;;14.88;100.00;97734.97;5017191;28;20042;-73
2023/09/09 02:47:19;;;;;;;9.43;6.03;;;16.00;99.90;;;14.80;100.00;97738.03;5033881;28;20046;-73
2023/09/09 02:49:50;;;;;;;8.48;5.78;;;15.90;99.90;;;14.79;100.00;97736.31;5007618;28;20054;-73
2023/09/09 02:52:18;;;;;;;10.25;5.50;;;15.90;99.90;;;14.79;100.00;97738.94;5018446;28;20061;-75
2023/09/09 02:54:45;;;;;;;7.10;5.40;;;15.90;99.90;;;14.90;100.00;97729.66;5020134;28;20057;-74
2023/09/09 02:57:12;;;;;;;7.95;5.13;;;15.90;99.90;;;14.91;100.00;97729.53;5016825;28;20084;-73
2023/09/09 02:59:39;;;;;;;9.80;6.18;;;15.90;99.90;;;14.77;100.00;97732.13;5033928;28;20577;-72
2023/09/09 03:02:06;;;;;;;13.50;6.72;;;15.90;99.90;;;14.64;100.00;97732.81;5003634;28;20053;-73
2023/09/09 03:04:34;;;;;;;10.35;6.85;;;15.80;99.90;;;14.66;100.00;97739.72;5018291;28;20038;-72
2023/09/09 03:07:01;;;;;;;7.18;5.40;;;15.80;99.90;;;14.78;100.00;97742.50;5018518;28;20056;-73
2023/09/09 03:09:29;;;;;;;8.98;6.38;;;15.70;99.90;;;14.71;100.00;97735.06;5017972;28;20080;-73
2023/09/09 03:11:57;;;;;;;11.07;6.60;;;15.80;99.90;;;14.70;100.00;97736.00;5003659;28;20081;-73
2023/09/09 03:14:24;;;;;;;9.75;5.95;;;15.70;99.90;;;14.77;100.00;97735.56;5019396;28;20770;-73
2023/09/09 03:16:54;;;;;;;8.48;5.72;;;15.70;99.90;;;14.84;100.00;97729.06;5018671;28;20111;-73
2023/09/09 03:19:21;;;;;;;10.63;6.10;;;15.70;99.90;;;14.75;100.00;97724.34;5005497;28;20046;-73
2023/09/09 03:21:48;;;;;;;11.95;6.30;;;15.70;99.90;;;14.60;100.00;97731.31;5007906;28;20166;-73
2023/09/09 03:24:15;;;;;;;8.23;5.35;;;15.70;99.90;;;14.58;100.00;97732.34;5022471;28;20045;-73
2023/09/09 03:26:43;;;;;;;9.43;5.60;;;15.70;99.90;;;14.63;100.00;97727.69;5022536;28;20049;-73
2023/09/09 03:29:10;;;;;;;8.48;6.25;;;15.60;99.90;;;14.57;100.00;97735.84;5021456;28;20053;-72
2023/09/09 03:31:37;;;;;;;10.57;7.10;;;15.60;99.90;;;14.48;100.00;97725.88;5028779;28;20049;-73
2023/09/09 03:34:04;;;;;;;9.52;6.20;;;15.60;99.90;;;14.47;100.00;97729.44;5017427;28;20244;-75
2023/09/09 03:36:35;;;;;;;9.65;6.50;;;15.50;99.90;;;14.47;100.00;97732.88;5033263;28;20046;-73
2023/09/09 03:39:03;;;;;;;8.55;7.05;;;15.50;99.90;;;14.48;100.00;97731.94;5020837;28;20538;-73
2023/09/09 03:41:31;;;;;;;9.85;6.90;;;15.50;99.90;;;14.27;100.00;97723.53;5020993;28;20128;-73
2023/09/09 03:43:59;;;;;;;9.57;6.22;;;15.40;99.90;;;14.28;100.00;97729.59;5017039;28;20521;-73
2023/09/09 03:46:26;;;;;;;11.20;7.03;;;15.30;99.90;;;14.36;100.00;97732.66;5020695;28;20049;-73
2023/09/09 03:48:54;;;;;;;8.82;5.60;;;15.30;99.90;;;14.39;100.00;97730.72;5022439;28;20472;-73
2023/09/09 03:51:21;;;;;;;7.82;5.55;;;15.40;99.90;;;14.62;100.00;97720.78;5022606;28;20064;-73
2023/09/09 03:53:48;;;;;;;11.23;6.10;;;15.40;99.90;;;14.47;100.00;97719.84;5019248;28;20446;-73
2023/09/09 03:56:17;;;;;;;7.18;5.35;;;15.40;99.90;;;14.37;100.00;97719.50;5021269;28;20806;-75
2023/09/09 03:58:44;;;;;;;7.97;5.50;;;15.40;99.90;;;14.42;100.00;97717.47;5027076;28;20129;-73
2023/09/09 04:01:12;;;;;;;8.18;5.95;;;15.50;99.90;;;14.41;100.00;97723.66;5021271;28;20137;-73
2023/09/09 04:03:40;;;;;;;9.23;5.88;;;15.40;99.90;;;14.48;100.00;97726.72;5023021;28;20041;-75
2023/09/09 04:06:11;;;;;;;7.78;5.03;;;15.40;99.90;;;14.53;100.00;97724.72;5023010;28;20057;-75
2023/09/09 04:08:39;;;;;;;10.05;6.30;;;15.40;99.90;;;14.33;100.00;97727.59;5022645;28;20073;-75
2023/09/09 04:11:07;;;;;;;7.70;5.20;;;15.40;99.90;;;14.43;100.00;97729.59;5018627;28;20046;-75
2023/09/09 04:13:37;;;;;;;11.27;6.35;;;15.40;99.90;;;14.40;100.00;97729.78;5019653;28;20053;-75
2023/09/09 04:16:06;;;;;;;9.07;5.40;;;15.40;99.90;;;14.42;100.00;97724.47;5020166;28;20439;-75
2023/09/09 04:18:33;;;;;;;7.50;4.93;;;15.40;99.90;;;14.38;100.00;97731.63;5020361;28;20582;-75
2023/09/09 04:21:12;;;;;;;9.07;6.15;;;15.40;99.90;;;14.26;100.00;97731.47;5022694;28;20057;-75
2023/09/09 04:23:40;;;;;;;8.18;5.85;;;15.30;99.90;;;14.26;100.00;97732.31;5005185;28;20196;-74
2023/09/09 04:26:07;;;;;;;8.63;6.13;;;15.30;99.90;;;14.19;100.00;97728.38;5008254;28;20428;-75
2023/09/09 04:28:35;;;;;;;7.80;5.82;;;15.20;99.90;;;14.18;100.00;97731.88;5024806;28;20140;-75
2023/09/09 04:31:03;;;;;;;9.75;5.20;;;15.20;99.90;;;14.14;100.00;97728.63;5021379;28;20045;-75
2023/09/09 04:33:30;;;;;;;7.43;4.90;;;15.20;99.90;;;14.19;100.00;97731.81;5024125;28;20049;-75
2023/09/09 04:35:58;;;;;;;9.38;5.53;;;15.20;99.90;;;14.28;100.00;97721.78;5024845;28;20123;-75
2023/09/09 04:38:25;;;;;;;9.77;5.63;;;15.30;99.90;;;14.30;100.00;97725.13;5019411;28;20745;-75
2023/09/09 04:40:52;;;;;;;7.30;4.80;;;15.30;99.90;;;14.18;100.00;97717.06;5022113;28;20156;-75
2023/09/09 04:43:20;;;;;;;7.85;5.78;;;15.30;99.90;;;14.18;100.00;97724.06;5019368;28;20041;-75
2023/09/09 04:45:48;;;;;;;9.50;5.57;;;15.20;99.90;;;14.13;100.00;97724.31;5021028;28;20056;-75
2023/09/09 04:48:15;;;;;;;8.90;5.63;;;15.20;99.90;;;14.17;100.00;97725.00;5022707;28;20502;-75
2023/09/09 04:50:43;;;;;;;7.60;4.85;;;15.20;99.90;;;14.26;100.00;97728.88;5005942;28;20046;-75
2023/09/09 04:53:10;;;;;;;11.45;5.35;;;15.20;99.90;;;14.14;100.00;97728.63;5017564;28;20046;-75
2023/09/09 04:55:37;;;;;;;9.80;6.63;;;15.20;99.90;;;14.06;100.00;97737.78;5036952;28;20140;-75
2023/09/09 04:58:10;;;;;;;8.18;5.60;;;15.10;99.90;;;14.08;100.00;97742.00;5025120;28;20136;-74
2023/09/09 05:00:38;;;;;;;7.95;6.00;;;15.10;99.90;;;14.19;100.00;97741.41;5023711;28;20050;-75
2023/09/09 05:03:05;;;;;;;8.27;4.70;;;15.10;99.90;;;14.31;100.00;97732.06;5019461;28;20049;-75
2023/09/09 05:05:32;;;;;;;10.50;5.85;;;15.20;99.90;;;14.28;100.00;97743.53;5019177;28;20100;-75
2023/09/09 05:07:59;;;;;;;9.80;4.95;;;15.20;99.90;;;14.31;100.00;97743.34;5020116;28;20084;-75
2023/09/09 05:10:27;;;;;;;8.38;5.85;;;15.20;99.90;;;14.34;100.00;97737.09;5037720;28;20049;-75
2023/09/09 05:12:54;;;;;;;9.15;4.95;;;15.20;99.90;;;14.35;100.00;97729.19;5022226;28;20053;-75
2023/09/09 05:15:25;;;;;;;12.75;6.57;;;15.20;99.90;;;14.18;100.00;97742.31;5019444;28;20045;-75
2023/09/09 05:17:53;;;;;;;9.43;5.65;;;15.20;99.90;;;14.23;100.00;97737.69;5023502;28;20073;-75
2023/09/09 05:20:20;;;;;;;8.65;5.63;;;15.20;99.90;;;14.27;100.00;97735.75;5008834;28;20107;-75
2023/09/09 05:22:47;;;;;;;8.80;6.35;;;15.20;99.90;;;14.22;100.00;97747.28;5022590;28;20069;-75
2023/09/09 05:25:14;;;;;;;9.27;5.03;;;15.20;99.90;;;14.41;100.00;97744.53;5018144;28;20127;-75
2023/09/09 05:27:42;;;;;;;7.25;5.53;;;15.20;99.90;;;14.43;100.00;97742.66;5020094;28;20042;-75
2023/09/09 05:30:11;;;;;;;9.25;5.80;;;15.30;99.90;;;14.38;100.00;97747.28;5022573;28;20048;-75
2023/09/09 05:32:39;;;;;;;9.32;5.95;;;15.30;99.90;;;14.44;100.00;97752.19;5035799;28;20099;-75
2023/09/09 05:35:09;;;;;;;8.32;6.43;;;15.40;99.90;;;14.45;100.00;97750.41;5016960;28;20136;-75
2023/09/09 05:37:37;;;;;;;12.40;6.35;;;15.30;99.90;;;14.55;100.00;97751.63;5025195;28;20037;-74
2023/09/09 05:40:05;;;;;;;8.93;6.65;;;15.40;99.90;;;14.53;100.00;97755.19;5018421;28;20045;-74
2023/09/09 05:42:32;;;;;;;10.45;7.03;;;15.40;99.90;;;14.54;100.00;97747.31;5019373;28;20076;-75
2023/09/09 05:45:00;;;;;;;8.38;5.68;;;15.50;99.90;;;14.68;100.00;97753.53;5018222;28;20510;-75
2023/09/09 05:47:27;;;;;;;7.72;5.63;;;15.50;99.90;;;14.79;100.00;97757.22;5008888;28;20093;-75
2023/09/09 05:49:55;;;;;;;9.27;6.60;;;15.50;99.90;;;14.71;100.00;97753.34;5017262;28;20125;-75
2023/09/09 05:52:22;;;;;;;11.07;5.18;;;15.60;99.90;;;14.80;100.00;97756.31;5016794;28;20566;-75
2023/09/09 05:54:50;;;;;;;7.32;5.78;;;15.70;99.90;;;14.93;100.00;97761.66;5023997;28;20092;-74
2023/09/09 05:57:17;;;;;;;8.50;4.95;;;15.70;99.90;;;15.08;100.00;97751.28;5019222;28;20057;-75
2023/09/09 05:59:44;;;;;;;9.02;6.05;;;15.70;99.90;;;15.05;100.00;97747.03;5018360;28;20053;-75
2023/09/09 06:02:12;;;;;;;9.13;5.00;;;15.70;99.90;;;15.14;100.00;97754.34;5021343;28;20056;-74
2023/09/09 06:04:39;;;;;;;9.63;6.38;;;15.80;99.90;;;15.24;100.00;97755.50;5018813;28;20092;-74
2023/09/09 06:07:07;;;;;;;7.30;5.75;;;15.80;99.90;;;15.16;100.00;97757.72;5020899;28;20124;-74
2023/09/09 06:09:34;;;;;;;10.70;7.15;;;15.80;99.90;;;15.24;100.00;97757.28;5022802;28;20510;-75
2023/09/09 06:12:04;;;;;;;11.75;7.43;;;15.80;99.90;;;15.32;100.00;97762.06;5019288;28;20053;-75
2023/09/09 06:14:33;;;;;;;8.52;6.57;;;15.90;99.90;;;15.57;100.00;97764.06;5023406;28;20053;-74
2023/09/09 06:17:00;;;;;;;9.30;6.00;;;16.10;99.90;;;15.76;100.00;97762.06;5025708;28;20057;-74
2023/09/09 06:19:28;;;;;;;10.48;6.43;;;16.20;99.90;;;15.98;100.00;97763.38;5022538;28;20064;-75
2023/09/09 06:21:54;;;;;;;8.90;6.57;;;16.30;99.90;;;16.00;100.00;97757.09;5020147;28;20857;-76
2023/09/09 06:24:23;;;;;;;7.72;6.35;;;16.50;99.90;;;15.97;100.00;97767.75;5023143;28;20129;-75
2023/09/09 06:26:50;;;;;;;9.18;6.43;;;16.50;99.90;;;15.84;100.00;97766.81;5023271;28;20074;-75
2023/09/09 06:29:19;;;;;;;8.55;6.10;;;16.60;99.90;;;15.84;100.00;97767.66;5022021;28;20049;-75
2023/09/09 06:31:46;;;;;;;8.35;6.03;;;16.60;99.90;;;16.01;100.00;97777.13;5021830;28;20050;-76
2023/09/09 06:34:14;;;;;;;10.38;6.60;;;16.70;99.90;;;16.29;100.00;97784.09;5033718;28;20434;-75
2023/09/09 06:36:41;;;;;;;9.27;6.72;;;16.80;99.90;;;16.63;100.00;97783.75;5018898;28;20049;-75
2023/09/09 06:39:08;;;;;;;7.75;6.18;;;17.00;99.90;;;16.88;100.00;97783.88;5008510;28;20049;-75
2023/09/09 06:41:35;;;;;;;8.80;6.07;;;17.10;99.90;;;17.00;100.00;97778.78;5017870;28;20089;-75
2023/09/09 06:44:04;;;;;;;7.53;5.43;;;17.30;99.90;;;17.11;100.00;97784.16;5017415;28;20049;-73
2023/09/09 06:46:31;;;;;;;10.23;6.47;;;17.40;99.90;;;17.31;100.00;97774.94;5017469;28;20502;-75
2023/09/09 06:48:58;;;;;;;12.85;6.07;;;17.50;99.90;;;17.48;100.00;97779.91;5007568;28;20157;-74
2023/09/09 06:51:26;;;;;;;7.95;5.68;;;17.70;99.90;;;17.69;100.00;97777.63;5007548;28;20045;-75
2023/09/09 06:53:53;;;;;;;7.53;6.20;;;17.80;99.90;;;17.85;100.00;97772.19;5016122;28;20058;-73
2023/09/09 06:56:21;;;;;;;10.27;7.18;;;18.00;99.90;;;17.90;100.00;97780.59;5017921;28;20143;-73
2023/09/09 06:58:48;;;;;;;11.25;6.93;;;18.10;99.90;;;18.11;100.00;97783.53;5032940;28;20149;-73
2023/09/09 07:01:15;;;;;;;8.48;6.03;;;18.30;99.90;;;18.20;100.00;97792.56;5016672;28;20049;-75
2023/09/09 07:03:42;;;;;;;11.77;6.10;;;18.50;99.90;;;18.51;100.00;97791.19;5017763;28;20522;-74
2023/09/09 07:06:10;;;;;;;10.50;5.88;;;18.70;99.90;;;18.71;100.00;97786.31;5017234;28;20084;-74
2023/09/09 07:08:54;;;;;;;7.43;4.97;;;19.00;99.90;;;19.12;100.00;97785.94;5017264;28;20060;-74
2023/09/09 07:11:21;;;;;;;9.27;5.68;;;19.20;99.90;;;19.27;100.00;97773.41;5018067;28;20644;-74
2023/09/09 07:13:48;;;;;;;8.00;5.95;;;19.50;99.90;;;19.49;100.00;97785.81;5018481;28;20576;-74
2023/09/09 07:16:16;;;;;;;8.38;5.28;;;19.60;99.90;;;19.70;100.00;97785.16;5021084;28;20169;-74
2023/09/09 07:18:44;;;;;;;7.25;5.70;;;19.90;99.90;;;19.92;100.00;97782.56;5015833;28;20049;-75
2023/09/09 07:21:11;;;;;;;6.65;5.32;;;20.10;99.90;;;20.03;100.00;97790.47;5018479;28;20124;-74
2023/09/09 07:23:38;;;;;;;8.02;5.43;;;20.30;99.90;;;20.25;100.00;97788.78;5020594;28;20061;-76
2023/09/09 07:26:06;;;;;;;5.40;4.88;;;20.50;99.90;;;20.54;100.00;97783.84;5014076;28;20375;-74
2023/09/09 07:28:33;;;;;;;6.68;5.18;;;20.60;99.90;;;20.77;100.00;97778.56;5009220;28;20049;-74
2023/09/09 07:31:04;;;;;;;6.97;5.57;;;20.90;99.90;;;21.02;100.00;97775.56;5025018;28;21018;-74
2023/09/09 07:33:32;;;;;;;6.47;5.20;;;21.10;99.90;;;21.33;100.00;97766.94;5022001;28;20037;-74
2023/09/09 07:35:59;;;;;;;8.95;5.50;;;21.30;99.90;;;21.55;100.00;97766.00;5015427;28;20050;-74
2023/09/09 07:38:26;;;;;;;6.30;4.90;;;21.50;99.90;;;21.70;100.00;97764.69;5022310;28;20042;-74
2023/09/09 07:41:01;;;;;;;7.30;4.88;;;21.70;99.90;;;21.83;100.00;97760.03;5015577;28;20132;-74
2023/09/09 07:43:28;;;;;;;5.93;5.32;;;21.90;99.90;;;21.96;100.00;97753.69;5022344;28;20133;-74
2023/09/09 07:45:55;;;;;;;7.70;5.05;;;22.10;99.90;;;22.04;100.00;97745.94;5017819;28;20045;-74
2023/09/09 07:48:24;;;;;;;9.77;5.90;;;22.20;99.90;;;22.14;100.00;97747.63;5018848;28;20503;-74
2023/09/09 07:50:56;;;;;;;6.57;5.15;;;22.40;99.90;;;22.52;100.00;97732.06;5000408;28;20060;-74
2023/09/09 07:53:23;;;;;;;5.90;4.60;;;22.50;99.90;;;22.83;100.00;97740.75;5016579;28;20049;-74
2023/09/09 07:55:51;;;;;;;7.30;4.95;;;22.70;99.90;;;23.45;100.00;97730.69;5019849;28;20053;-74
2023/09/09 07:58:19;;;;;;;5.43;4.32;;;23.00;99.90;;;24.13;100.00;97741.09;5016559;28;20050;-74
2023/09/09 08:00:46;;;;;;;8.13;4.95;;;23.10;99.90;;;25.00;100.00;97742.38;5019549;28;20046;-73
2023/09/09 08:03:14;;;;;;;5.03;4.07;;;23.40;99.90;;;25.58;100.00;97751.66;5020833;28;20553;-74
2023/09/09 08:05:44;;;;;;;5.95;3.92;;;23.80;99.90;;;26.08;100.00;97758.97;5021080;28;20041;-73
2023/09/09 08:08:11;;;;;;;9.07;4.18;;;24.40;99.90;;;26.73;100.00;97770.91;5022481;28;20496;-74
2023/09/09 08:10:38;;;;;;;4.95;3.70;;;25.10;99.90;;;27.30;100.00;97776.31;5022433;28;20049;-74
2023/09/09 08:13:05;;;;;;;6.50;3.50;;;26.00;99.90;;;27.48;100.00;97777.97;5020539;28;20060;-74
2023/09/09 08:15:32;;;;;;;5.63;3.60;;;27.00;99.90;;;27.71;100.00;97786.97;5035193;28;20049;-75
2023/09/09 08:18:07;;;;;;;7.30;3.50;;;27.90;99.90;;;28.75;100.00;97797.69;5004696;28;20541;-74
2023/09/09 08:20:34;;;;;;;4.03;3.35;;;28.80;99.90;;;28.70;100.00;97805.41;5002361;28;20405;-74
2023/09/09 08:23:02;;;;;;;6.05;3.05;;;29.80;99.90;;;29.28;100.00;97803.22;5021195;28;20046;-74
2023/09/09 08:25:32;;;;;;;6.50;2.88;;;30.60;99.90;;;29.91;100.00;97804.72;5021851;28;20140;-75
2023/09/09 08:28:04;;;;;;;4.80;3.03;;;31.40;99.90;;;30.27;100.00;97797.81;5022915;28;20054;-75
2023/09/09 08:30:31;;;;;;;5.93;3.47;;;32.00;99.90;;;30.24;100.00;97807.03;5020299;28;20104;-75
2023/09/09 08:32:58;;;;;;;5.93;3.50;;;32.40;99.90;;;30.31;100.00;97804.47;5018503;28;20137;-75
2023/09/09 08:35:26;;;;;;;5.30;2.67;;;32.70;99.90;;;30.52;100.00;97804.56;5035919;28;20069;-75
2023/09/09 08:37:53;;;;;;;5.47;3.38;;;33.00;99.90;;;30.45;100.00;97803.66;5023589;28;20058;-76
2023/09/09 08:40:20;;;;;;;3.67;2.85;;;33.00;99.90;;;31.28;100.00;97796.16;5024849;28;20053;-75
2023/09/09 08:42:50;;;;;;;5.47;3.45;;;33.30;99.90;;;31.18;100.00;97803.66;5020847;28;20045;-75
2023/09/09 08:45:48;;;;;;;5.75;3.50;;;33.40;99.90;;;31.48;100.00;97801.72;5021705;28;20123;-74
2023/09/09 08:48:20;;;;;;;5.15;3.05;;;33.40;99.90;;;31.65;100.00;97796.91;5006216;28;20128;-75
2023/09/09 08:50:50;;;;;;;4.43;2.88;;;33.70;99.90;;;30.93;100.00;97800.50;5019145;28;20072;-74
2023/09/09 08:53:19;;;;;;;3.03;2.70;;;33.70;99.70;;;30.98;100.00;97800.78;5023186;28;20041;-75
2023/09/09 08:55:48;;;;;;;5.32;3.35;;;33.70;99.30;;;31.68;100.00;97797.34;5022524;28;20104;-76
2023/09/09 08:58:15;;;;;;;6.43;3.80;;;33.70;99.50;;;31.13;100.00;97803.41;5024098;28;20049;-76
2023/09/09 09:00:42;;;;;;;5.88;3.72;;;33.50;99.00;;;31.08;100.00;97795.13;5020102;28;20111;-75
2023/09/09 09:03:10;;;;;;;5.63;3.58;;;33.30;98.40;;;31.70;100.00;97796.31;5008305;28;20054;-75
2023/09/09 09:05:38;;;;;;;5.60;3.30;;;33.30;98.60;;;32.34;100.00;97795.31;5022975;28;20053;-75
2023/09/09 09:08:07;;;;;;;8.20;3.17;;;33.60;99.10;;;32.32;100.00;97798.22;5024046;28;20529;-75
2023/09/09 09:10:34;;;;;;;7.50;3.35;;;33.80;98.00;;;32.09;100.00;97793.97;5016644;28;20046;-75
2023/09/09 09:13:02;;;;;;;4.88;3.90;;;34.00;97.30;;;32.23;100.00;97794.88;5021077;28;20498;-74
2023/09/09 09:15:36;;;;;;;6.63;3.42;;;34.10;96.70;;;32.29;100.00;97788.66;5018542;28;20118;-75
2023/09/09 09:18:03;;;;;;;7.53;3.50;;;33.80;95.90;;;32.17;100.00;97794.81;5018810;28;20053;-76
2023/09/09 09:20:33;;;;;;;5.38;3.30;;;33.80;96.70;;;32.07;100.00;97785.25;5022499;28;20156;-76
2023/09/09 09:23:03;;;;;;;5.77;3.30;;;33.80;96.50;;;31.70;100.00;97799.81;5022533;28;20057;-76
2023/09/09 09:25:57;;;;;;;7.53;3.20;;;33.60;95.50;;;31.59;100.00;97795.84;5024621;28;20052;-76
2023/09/09 09:28:28;;;;;;;8.57;3.30;;;33.60;95.70;;;31.82;100.00;97792.09;5019538;28;20276;-76
2023/09/09 09:30:56;;;;;;;5.70;3.05;;;33.50;95.50;;;31.91;100.00;97790.06;5023515;28;20121;-76
2023/09/09 09:33:27;;;;;;;7.18;3.60;;;33.50;95.90;;;31.44;100.00;97787.84;5024061;28;20121;-75
2023/09/09 09:35:54;;;;;;;6.85;3.65;;;33.30;95.50;;;31.39;100.00;97792.13;5001789;28;20422;-76
2023/09/09 09:38:22;;;;;;;6.70;2.90;;;33.40;95.60;;;32.60;100.00;97791.97;5037470;28;20053;-76
2023/09/09 09:40:59;;;;;;;5.40;2.90;;;33.50;95.80;;;33.24;100.00;97788.03;5023978;28;20423;-76
2023/09/09 09:43:26;;;;;;;6.00;3.60;;;34.10;95.20;;;32.98;100.00;97784.22;5019591;28;20046;-75
2023/09/09 09:45:53;;;;;;;6.50;3.50;;;34.10;95.20;;;31.95;100.00;97788.66;5018116;28;20081;-74
2023/09/09 09:48:27;;;;;;;5.22;3.15;;;33.70;94.80;;;33.11;100.00;97784.25;5018323;28;20124;-75
2023/09/09 09:50:54;;;;;;;6.53;3.20;;;34.10;94.90;;;33.37;100.00;97788.03;5018492;28;20515;-75
2023/09/09 09:53:22;;;;;;;5.85;3.20;;;34.40;95.00;;;33.23;100.00;97786.34;5003104;28;20100;-76
2023/09/09 09:55:53;;;;;;;6.38;2.80;;;34.50;94.50;;;33.03;100.00;97778.25;5020080;28;20505;-76
2023/09/09 09:58:22;;;;;;;5.28;2.97;;;34.30;94.30;;;33.54;100.00;97778.50;5021304;28;20077;-75
2023/09/09 10:00:54;;;;;;;4.40;2.73;;;34.30;94.00;;;32.31;100.00;97783.13;5021033;28;20108;-76
2023/09/09 10:03:24;;;;;;;7.85;3.33;;;34.40;93.60;;;33.18;100.00;97786.97;5020854;28;20053;-76
2023/09/09 10:05:54;;;;;;;6.78;3.45;;;34.20;94.10;;;32.29;100.00;97787.84;5017207;28;20068;-76
2023/09/09 10:08:36;;;;;;;7.28;3.40;;;34.10;93.50;;;32.73;100.00;97781.28;5032414;28;20041;-76
2023/09/09 10:11:06;;;;;;;7.20;2.85;;;34.00;93.10;;;33.29;100.00;97785.53;5017666;28;20137;-76
2023/09/09 10:14:03;;;;;;;5.80;3.30;;;34.10;93.60;;;34.67;100.00;97773.97;5025162;28;20066;-77
2023/09/09 10:16:32;;;;;;;6.20;3.30;;;34.70;93.70;;;33.08;100.00;97787.38;5009540;28;20053;-79